createdAt,value
2019-02-10T00:02:05.858Z,3.10
2019-02-10T00:04:35.412Z,2.90
2019-02-10T00:07:05.029Z,2.83
2019-02-10T00:09:34.652Z,3.00
2019-02-10T00:12:05.359Z,2.63
2019-02-10T00:14:34.970Z,3.10
2019-02-10T00:17:04.574Z,3.33
2019-02-10T00:19:34.176Z,2.60
2019-02-10T00:22:05.234Z,3.23
2019-02-10T00:24:34.836Z,2.87
2019-02-10T00:27:04.900Z,3.27
2019-02-10T00:29:34.466Z,3.20
2019-02-10T00:32:04.142Z,3.37
2019-02-10T00:34:33.734Z,2.57
2019-02-10T00:37:05.003Z,3.13
2019-02-10T00:39:34.625Z,3.27
2019-02-10T00:42:04.284Z,2.70
2019-02-10T00:44:33.998Z,2.87
2019-02-10T00:47:03.690Z,2.47
2019-02-10T00:49:33.248Z,3.03
2019-02-10T00:52:02.896Z,3.20
2019-02-10T00:54:35.049Z,2.27
2019-02-10T00:57:04.686Z,3.20
2019-02-10T00:59:35.937Z,2.53
2019-02-10T01:02:05.732Z,2.87
2019-02-10T01:04:35.286Z,3.17
2019-02-10T01:07:04.893Z,2.57
2019-02-10T01:09:34.521Z,2.43
2019-02-10T01:12:04.109Z,2.23
2019-02-10T01:14:33.741Z,2.40
2019-02-10T01:17:03.425Z,2.70
2019-02-10T01:19:33.054Z,2.90
2019-02-10T01:22:02.667Z,2.73
2019-02-10T01:24:32.221Z,2.20
2019-02-10T01:27:01.891Z,2.73
2019-02-10T01:29:31.493Z,2.87
2019-02-10T01:32:01.087Z,2.37
2019-02-10T01:34:30.865Z,2.87
2019-02-10T01:37:00.507Z,2.77
2019-02-10T01:39:30.182Z,2.47
2019-02-10T01:42:00.705Z,1.93
2019-02-10T01:44:30.749Z,2.37
2019-02-10T01:47:00.475Z,2.40
2019-02-10T01:49:30.039Z,2.77
2019-02-10T01:51:59.646Z,3.87
2019-02-10T01:54:29.264Z,2.30
2019-02-10T01:56:58.828Z,2.77
2019-02-10T01:59:28.464Z,2.03
2019-02-10T02:01:58.088Z,2.13
2019-02-10T02:04:27.768Z,2.37
2019-02-10T02:06:58.091Z,2.23
2019-02-10T02:09:28.764Z,2.57
2019-02-10T02:11:58.318Z,2.37
2019-02-10T02:14:28.049Z,3.37
2019-02-10T02:16:57.640Z,2.63
2019-02-10T02:19:27.254Z,2.47
2019-02-10T02:21:56.850Z,2.00
2019-02-10T02:24:26.460Z,2.63
2019-02-10T02:26:56.508Z,2.87
2019-02-10T02:29:26.098Z,2.57
2019-02-10T02:31:55.676Z,2.47
2019-02-10T02:34:25.257Z,2.13
2019-02-10T02:36:54.831Z,2.07
2019-02-10T02:39:24.489Z,2.70
2019-02-10T02:41:54.057Z,2.27
2019-02-10T02:44:23.659Z,2.10
2019-02-10T02:46:53.238Z,2.17
2019-02-10T02:49:22.847Z,3.73
2019-02-10T02:51:52.483Z,2.20
2019-02-10T02:54:23.747Z,2.60
2019-02-10T02:56:53.411Z,2.40
2019-02-10T02:59:23.043Z,2.07
2019-02-10T03:01:52.729Z,2.30
2019-02-10T03:04:22.311Z,2.43
2019-02-10T03:06:52.230Z,2.30
2019-02-10T03:09:21.813Z,2.17
2019-02-10T03:11:51.389Z,2.30
2019-02-10T03:14:21.013Z,2.07
2019-02-10T03:16:50.691Z,2.47
2019-02-10T03:19:20.281Z,2.17
2019-02-10T03:21:49.884Z,2.53
2019-02-10T03:24:19.476Z,2.40
2019-02-10T03:26:49.069Z,1.80
2019-02-10T03:29:20.346Z,2.43
2019-02-10T03:31:49.978Z,2.40
2019-02-10T03:34:20.909Z,2.67
2019-02-10T03:36:50.532Z,1.87
2019-02-10T03:39:20.059Z,2.27
2019-02-10T03:41:49.678Z,2.40
2019-02-10T03:44:19.277Z,2.50
2019-02-10T03:46:48.938Z,2.27
2019-02-10T03:49:18.546Z,2.00
2019-02-10T03:51:48.268Z,2.07
2019-02-10T03:54:17.858Z,2.37
2019-02-10T03:56:47.686Z,2.03
2019-02-10T03:59:17.427Z,2.00
2019-02-10T04:01:47.035Z,1.90
2019-02-10T04:04:16.683Z,2.10
2019-02-10T04:06:46.351Z,1.60
2019-02-10T04:09:15.955Z,1.93
2019-02-10T04:11:45.602Z,1.73
2019-02-10T04:14:15.271Z,2.00
2019-02-10T04:16:44.858Z,1.60
2019-02-10T04:19:14.403Z,1.93
2019-02-10T04:21:44.109Z,1.60
2019-02-10T04:24:13.717Z,2.03
2019-02-10T04:26:43.325Z,1.93
2019-02-10T04:29:12.912Z,1.40
2019-02-10T04:31:42.517Z,1.87
2019-02-10T04:34:12.108Z,1.57
2019-02-10T04:36:41.725Z,2.20
2019-02-10T04:39:11.421Z,2.00
2019-02-10T04:41:40.962Z,1.77
2019-02-10T04:44:10.556Z,1.97
2019-02-10T04:46:40.226Z,1.60
2019-02-10T04:49:09.828Z,1.80
2019-02-10T04:51:39.436Z,1.90
2019-02-10T04:54:09.022Z,1.70
2019-02-10T04:56:38.798Z,1.53
2019-02-10T04:59:08.375Z,1.90
2019-02-10T05:01:37.986Z,1.80
2019-02-10T05:04:07.612Z,2.20
2019-02-10T05:06:37.201Z,1.63
2019-02-10T05:09:06.846Z,1.90
2019-02-10T05:11:36.450Z,1.80
2019-02-10T05:14:06.043Z,1.83
2019-02-10T05:16:35.648Z,1.77
2019-02-10T05:19:05.219Z,1.53
2019-02-10T05:21:34.838Z,2.33
2019-02-10T05:24:04.448Z,2.20
2019-02-10T05:26:34.053Z,1.80
2019-02-10T05:29:03.659Z,1.57
2019-02-10T05:31:33.236Z,1.73
2019-02-10T05:34:02.887Z,1.83
2019-02-10T05:36:32.489Z,1.87
2019-02-10T05:39:02.127Z,1.40
2019-02-10T05:41:33.330Z,1.70
2019-02-10T05:44:02.922Z,1.80
2019-02-10T05:46:34.150Z,1.73
2019-02-10T05:49:03.910Z,1.53
2019-02-10T05:51:33.606Z,1.50
2019-02-10T05:54:03.189Z,1.90
2019-02-10T05:56:34.392Z,1.80
2019-02-10T05:59:04.014Z,1.43
2019-02-10T06:02:23.425Z,1.57
2019-02-10T06:04:53.051Z,1.70
2019-02-10T06:07:22.626Z,1.70
2019-02-10T06:09:52.201Z,1.80
2019-02-10T06:12:21.828Z,1.37
2019-02-10T06:14:52.038Z,1.57
2019-02-10T06:17:21.693Z,1.40
2019-02-10T06:19:51.264Z,1.50
2019-02-10T06:22:20.866Z,1.67
2019-02-10T06:24:50.493Z,1.90
2019-02-10T06:27:20.094Z,1.53
2019-02-10T06:29:49.718Z,1.80
2019-02-10T06:32:19.358Z,1.53
2019-02-10T06:34:50.129Z,1.77
2019-02-10T06:37:19.672Z,1.83
2019-02-10T06:39:49.306Z,1.70
2019-02-10T06:42:18.990Z,1.40
2019-02-10T06:44:48.564Z,1.70
2019-02-10T06:47:18.178Z,1.77
2019-02-10T06:49:47.766Z,1.13
2019-02-10T06:52:17.434Z,1.70
2019-02-10T06:54:54.242Z,1.60
2019-02-10T06:57:25.681Z,1.73
2019-02-10T07:00:05.715Z,1.73
2019-02-10T07:03:17.410Z,1.73
2019-02-10T07:05:47.028Z,1.60
2019-02-10T07:08:17.690Z,2.07
2019-02-10T07:10:47.311Z,1.73
2019-02-10T07:13:30.291Z,1.47
2019-02-10T07:16:36.109Z,1.63
2019-02-10T07:19:42.196Z,2.03
2019-02-10T07:23:02.694Z,1.40
2019-02-10T07:25:54.409Z,1.40
2019-02-10T07:29:16.607Z,1.50
2019-02-10T07:32:30.814Z,1.30
2019-02-10T07:35:48.620Z,1.87
2019-02-10T07:38:40.205Z,1.77
2019-02-10T07:41:50.217Z,1.73
2019-02-10T07:44:54.554Z,1.50
2019-02-10T07:47:47.873Z,1.87
2019-02-10T07:50:41.793Z,1.70
2019-02-10T07:53:42.591Z,1.40
2019-02-10T07:56:56.689Z,1.40
2019-02-10T08:00:15.194Z,1.60
2019-02-10T08:03:31.296Z,1.50
2019-02-10T08:06:45.222Z,1.50
2019-02-10T08:09:42.905Z,1.63
2019-02-10T08:12:37.943Z,1.33
2019-02-10T08:15:42.184Z,1.43
2019-02-10T08:18:49.927Z,1.27
2019-02-10T08:21:52.821Z,1.60
2019-02-10T08:24:49.005Z,1.30
2019-02-10T08:28:08.862Z,1.20
2019-02-10T08:31:05.839Z,1.53
2019-02-10T08:33:43.361Z,1.43
2019-02-10T08:36:35.324Z,1.50
2019-02-10T08:39:47.151Z,1.40
2019-02-10T08:42:51.739Z,1.43
2019-02-10T08:45:52.426Z,1.30
2019-02-10T08:48:44.581Z,1.40
2019-02-10T08:51:57.713Z,1.17
2019-02-10T08:54:28.946Z,1.20
2019-02-10T08:56:58.542Z,1.93
2019-02-10T08:59:28.134Z,1.33
2019-02-10T09:01:57.758Z,1.33
2019-02-10T09:04:27.365Z,2.03
2019-02-10T09:06:56.987Z,1.27
2019-02-10T09:09:26.564Z,1.40
2019-02-10T09:11:57.350Z,1.73
2019-02-10T09:14:26.965Z,1.80
2019-02-10T09:16:56.537Z,1.17
2019-02-10T09:19:26.159Z,1.70
2019-02-10T09:21:55.742Z,1.50
2019-02-10T09:24:25.321Z,1.20
2019-02-10T09:26:54.905Z,1.90
2019-02-10T09:29:24.498Z,1.23
2019-02-10T09:31:54.098Z,1.50
2019-02-10T09:34:23.710Z,1.47
2019-02-10T09:36:53.373Z,1.20
2019-02-10T09:39:23.006Z,1.30
2019-02-10T09:41:52.605Z,1.20
2019-02-10T09:44:22.213Z,1.43
2019-02-10T09:46:51.804Z,1.20
2019-02-10T09:49:21.422Z,1.43
2019-02-10T09:51:51.050Z,1.10
2019-02-10T09:54:20.600Z,1.50
2019-02-10T09:56:50.234Z,1.10
2019-02-10T09:59:19.860Z,1.43
2019-02-10T10:01:49.399Z,1.20
2019-02-10T10:04:19.020Z,1.50
2019-02-10T10:06:48.654Z,1.50
2019-02-10T10:09:19.647Z,1.50
2019-02-10T10:11:49.556Z,1.03
2019-02-10T10:14:20.708Z,1.50
2019-02-10T10:16:50.478Z,1.27
2019-02-10T10:19:20.069Z,1.33
2019-02-10T10:21:50.129Z,1.37
2019-02-10T10:24:19.730Z,2.30
2019-02-10T10:26:49.460Z,1.20
2019-02-10T10:29:19.084Z,1.40
2019-02-10T10:31:48.631Z,1.23
2019-02-10T10:34:18.278Z,1.10
2019-02-10T10:36:48.647Z,1.60
2019-02-10T10:39:18.310Z,1.40
2019-02-10T10:41:47.965Z,1.27
2019-02-10T10:44:17.629Z,1.10
2019-02-10T10:46:47.253Z,1.30
2019-02-10T10:49:18.041Z,1.03
2019-02-10T10:51:47.671Z,1.43
2019-02-10T10:54:17.257Z,1.03
2019-02-10T10:56:46.870Z,1.27
2019-02-10T10:59:16.473Z,1.30
2019-02-10T11:01:46.177Z,1.40
2019-02-10T11:04:15.804Z,1.50
2019-02-10T11:06:45.424Z,1.37
2019-02-10T11:09:15.030Z,1.30
2019-02-10T11:11:44.685Z,1.40
2019-02-10T11:14:14.270Z,1.33
2019-02-10T11:16:43.890Z,1.30
2019-02-10T11:19:13.588Z,1.30
2019-02-10T11:21:43.181Z,1.20
2019-02-10T11:24:12.786Z,1.50
2019-02-10T11:26:42.397Z,1.27
2019-02-10T11:29:11.960Z,0.90
2019-02-10T11:31:41.600Z,1.13
2019-02-10T11:34:12.832Z,1.20
2019-02-10T11:36:42.492Z,1.20
2019-02-10T11:39:12.122Z,1.73
2019-02-10T11:41:41.660Z,1.10
2019-02-10T11:44:11.288Z,1.10
2019-02-10T11:46:40.895Z,1.10
2019-02-10T11:49:10.473Z,1.13
2019-02-10T11:51:40.090Z,0.97
2019-02-10T11:54:09.669Z,1.27
2019-02-10T11:56:39.345Z,1.50
2019-02-10T11:59:08.933Z,1.13
2019-02-10T12:01:39.933Z,1.03
2019-02-10T12:04:09.514Z,1.30
2019-02-10T12:06:39.147Z,1.00
2019-02-10T12:09:08.749Z,0.77
2019-02-10T12:11:39.415Z,1.20
2019-02-10T12:14:09.028Z,1.07
2019-02-10T12:16:38.562Z,1.00
2019-02-10T12:19:08.237Z,1.07
2019-02-10T12:21:37.841Z,1.37
2019-02-10T12:24:07.517Z,1.33
2019-02-10T12:26:37.175Z,0.77
2019-02-10T12:29:06.971Z,1.10
2019-02-10T12:31:36.553Z,1.00
2019-02-10T12:34:06.163Z,0.97
2019-02-10T12:36:35.825Z,0.97
2019-02-10T12:39:07.657Z,1.20
2019-02-10T12:41:37.267Z,0.70
2019-02-10T12:44:06.858Z,0.90
2019-02-10T12:46:36.452Z,0.90
2019-02-10T12:49:06.120Z,0.70
2019-02-10T12:51:35.748Z,1.00
2019-02-10T12:54:06.633Z,1.00
2019-02-10T12:56:36.220Z,0.87
2019-02-10T12:59:05.841Z,1.33
2019-02-10T13:01:35.448Z,1.10
2019-02-10T13:04:05.046Z,1.03
2019-02-10T13:06:34.640Z,1.17
2019-02-10T13:09:06.529Z,0.93
2019-02-10T13:11:36.112Z,1.03
2019-02-10T13:14:05.724Z,1.20
2019-02-10T13:16:35.342Z,0.90
2019-02-10T13:19:04.946Z,0.80
2019-02-10T13:21:34.540Z,0.90
2019-02-10T13:24:05.198Z,1.00
2019-02-10T13:26:36.276Z,1.00
2019-02-10T13:29:05.854Z,0.80
2019-02-10T13:31:35.458Z,1.07
2019-02-10T13:34:05.048Z,0.90
2019-02-10T13:36:34.666Z,1.00
2019-02-10T13:39:06.064Z,0.93
2019-02-10T13:41:38.253Z,1.07
2019-02-10T13:44:08.070Z,0.90
2019-02-10T13:46:37.618Z,1.07
2019-02-10T13:49:08.301Z,1.17
2019-02-10T13:51:38.078Z,1.20
2019-02-10T13:54:07.682Z,1.10
2019-02-10T13:56:37.278Z,1.27
2019-02-10T13:59:06.906Z,0.90
2019-02-10T14:01:36.513Z,1.00
2019-02-10T14:04:06.114Z,1.27
2019-02-10T14:06:35.732Z,0.90
2019-02-10T14:09:06.544Z,1.17
2019-02-10T14:11:36.131Z,1.00
2019-02-10T14:14:05.734Z,0.73
2019-02-10T14:16:35.346Z,0.80
2019-02-10T14:19:23.283Z,1.10
2019-02-10T14:21:52.868Z,1.10
2019-02-10T14:24:22.518Z,1.00
2019-02-10T14:26:52.118Z,1.00
2019-02-10T14:29:21.719Z,1.00
2019-02-10T14:31:51.356Z,1.10
2019-02-10T14:34:20.984Z,1.20
2019-02-10T14:36:50.669Z,1.33
2019-02-10T14:39:20.274Z,0.90
2019-02-10T14:41:49.837Z,1.00
2019-02-10T14:44:19.449Z,1.10
2019-02-10T14:46:50.712Z,1.03
2019-02-10T14:49:20.328Z,1.40
2019-02-10T14:51:49.934Z,0.90
2019-02-10T14:54:19.609Z,1.03
2019-02-10T14:56:49.178Z,1.00
2019-02-10T14:59:18.742Z,0.90
2019-02-10T15:01:48.386Z,1.17
2019-02-10T15:04:17.993Z,1.37
2019-02-10T15:06:47.594Z,1.00
2019-02-10T15:09:17.209Z,0.80
2019-02-10T15:11:46.813Z,1.00
2019-02-10T15:14:16.411Z,0.87
2019-02-10T15:16:46.569Z,0.87
2019-02-10T15:19:16.115Z,1.00
2019-02-10T15:21:45.740Z,0.90
2019-02-10T15:24:16.415Z,0.80
2019-02-10T15:26:46.094Z,0.90
2019-02-10T15:29:16.178Z,1.03
2019-02-10T15:31:45.757Z,1.10
2019-02-10T15:34:15.401Z,1.03
2019-02-10T15:36:45.024Z,1.00
2019-02-10T15:39:14.617Z,1.00
2019-02-10T15:41:44.251Z,0.90
2019-02-10T15:44:13.872Z,1.20
2019-02-10T15:46:43.444Z,0.90
2019-02-10T15:49:13.098Z,0.90
2019-02-10T15:51:42.717Z,1.10
2019-02-10T15:54:12.364Z,0.70
2019-02-10T15:56:41.951Z,1.00
2019-02-10T15:59:11.506Z,0.90
2019-02-10T16:01:41.113Z,0.80
2019-02-10T16:04:10.848Z,1.00
2019-02-10T16:06:40.449Z,1.03
2019-02-10T16:09:10.148Z,0.97
2019-02-10T16:11:39.772Z,0.70
2019-02-10T16:14:09.459Z,1.13
2019-02-10T16:16:39.157Z,1.00
2019-02-10T16:19:08.767Z,0.93
2019-02-10T16:21:38.364Z,1.00
2019-02-10T16:24:07.910Z,1.13
2019-02-10T16:26:37.547Z,0.90
2019-02-10T16:29:07.129Z,0.90
2019-02-10T16:31:36.780Z,1.10
2019-02-10T16:34:06.385Z,0.70
2019-02-10T16:36:36.045Z,0.97
2019-02-10T16:39:12.889Z,0.90
2019-02-10T16:41:42.506Z,0.80
2019-02-10T16:44:12.100Z,0.70
2019-02-10T16:46:41.726Z,1.13
2019-02-10T16:49:11.359Z,1.10
2019-02-10T16:51:40.998Z,0.90
2019-02-10T16:54:11.525Z,0.87
2019-02-10T16:56:41.197Z,1.17
2019-02-10T16:59:10.831Z,1.00
2019-02-10T17:01:40.401Z,0.90
2019-02-10T17:04:10.017Z,1.00
2019-02-10T17:06:39.603Z,1.20
2019-02-10T17:09:09.386Z,1.00
2019-02-10T17:11:39.015Z,1.13
2019-02-10T17:14:08.718Z,1.00
2019-02-10T17:16:38.304Z,0.80
2019-02-10T17:19:07.913Z,0.90
2019-02-10T17:21:37.944Z,0.90
2019-02-10T17:24:07.554Z,1.00
2019-02-10T17:26:37.182Z,0.90
2019-02-10T17:29:06.792Z,1.13
2019-02-10T17:31:36.400Z,1.20
2019-02-10T17:34:05.964Z,1.03
2019-02-10T17:36:35.718Z,1.20
2019-02-10T17:39:07.665Z,1.00
2019-02-10T17:41:40.904Z,1.00
2019-02-10T17:44:10.481Z,1.07
2019-02-10T17:46:40.201Z,0.90
2019-02-10T17:49:09.864Z,1.30
2019-02-10T17:51:39.484Z,1.07
2019-02-10T17:54:09.134Z,1.13
2019-02-10T17:56:38.795Z,1.10
2019-02-10T17:59:08.427Z,1.17
2019-02-10T18:01:38.124Z,1.00
2019-02-10T18:04:07.722Z,1.20
2019-02-10T18:06:40.333Z,1.30
2019-02-10T18:09:09.929Z,1.10
2019-02-10T18:11:39.538Z,0.90
2019-02-10T18:14:25.671Z,1.20
2019-02-10T18:17:03.051Z,1.00
2019-02-10T18:19:50.036Z,1.00
2019-02-10T18:22:47.907Z,0.90
2019-02-10T18:25:30.236Z,1.00
2019-02-10T18:28:22.040Z,1.10
2019-02-10T18:31:10.758Z,0.97
2019-02-10T18:33:49.481Z,1.03
2019-02-10T18:36:33.417Z,0.90
2019-02-10T18:39:24.934Z,1.33
2019-02-10T18:42:03.957Z,1.10
2019-02-10T18:44:55.725Z,1.57
2019-02-10T18:47:43.057Z,1.17
2019-02-10T18:50:31.728Z,0.93
2019-02-10T18:53:23.673Z,1.20
2019-02-10T18:56:18.386Z,1.10
2019-02-10T18:58:57.367Z,1.80
2019-02-10T19:01:48.778Z,1.23
2019-02-10T19:04:40.233Z,1.20
2019-02-10T19:07:27.607Z,1.83
2019-02-10T19:10:15.456Z,1.20
2019-02-10T19:13:13.166Z,1.03
2019-02-10T19:16:17.174Z,1.00
2019-02-10T19:18:56.448Z,1.50
2019-02-10T19:21:45.023Z,1.10
2019-02-10T19:24:32.425Z,1.20
2019-02-10T19:27:20.978Z,1.33
2019-02-10T19:30:27.601Z,1.17
2019-02-10T19:33:16.264Z,1.30
2019-02-10T19:36:02.363Z,1.17
2019-02-10T19:38:39.125Z,1.00
2019-02-10T19:41:26.410Z,1.27
2019-02-10T19:44:13.839Z,1.10
2019-02-10T19:46:55.406Z,0.80
2019-02-10T19:49:46.969Z,1.07
2019-02-10T19:52:38.460Z,1.43
2019-02-10T19:55:30.490Z,1.00
2019-02-10T19:58:12.579Z,1.63
2019-02-10T20:01:01.250Z,0.90
2019-02-10T20:03:51.635Z,1.23
2019-02-10T20:06:45.353Z,1.43
2019-02-10T20:09:34.115Z,1.10
2019-02-10T20:12:13.375Z,1.20
2019-02-10T20:15:01.105Z,1.00
2019-02-10T20:17:49.446Z,1.30
2019-02-10T20:20:37.054Z,1.10
2019-02-10T20:23:24.843Z,1.10
2019-02-10T20:26:22.505Z,1.30
2019-02-10T20:29:10.071Z,0.83
2019-02-10T20:31:51.900Z,1.30
2019-02-10T20:34:35.672Z,1.10
2019-02-10T20:37:33.321Z,1.10
2019-02-10T20:40:27.967Z,1.10
2019-02-10T20:43:21.617Z,1.10
2019-02-10T20:46:09.227Z,1.10
2019-02-10T20:49:16.196Z,1.20
2019-02-10T20:52:13.883Z,1.10
2019-02-10T20:55:11.517Z,1.13
2019-02-10T20:57:55.333Z,1.10
2019-02-10T21:00:45.562Z,1.03
2019-02-10T21:03:27.611Z,0.80
2019-02-10T21:06:16.356Z,1.10
2019-02-10T21:09:08.157Z,1.40
2019-02-10T21:11:45.781Z,1.10
2019-02-10T21:14:24.410Z,1.00
2019-02-10T21:17:11.964Z,0.90
2019-02-10T21:20:06.526Z,1.63
2019-02-10T21:23:07.204Z,1.20
2019-02-10T21:26:01.906Z,0.83
2019-02-10T21:28:50.569Z,1.20
2019-02-10T21:31:40.704Z,1.03
2019-02-10T21:34:35.401Z,1.20
2019-02-10T21:37:28.989Z,1.30
2019-02-10T21:40:08.786Z,1.33
2019-02-10T21:42:57.460Z,1.20
2019-02-10T21:45:49.250Z,1.03
2019-02-10T21:48:25.708Z,1.23
2019-02-10T21:50:55.430Z,1.30
2019-02-10T21:53:25.202Z,1.00
2019-02-10T21:55:54.754Z,1.27
2019-02-10T21:58:24.418Z,1.00
2019-02-10T22:00:54.097Z,1.00
2019-02-10T22:03:25.362Z,1.20
2019-02-10T22:05:54.970Z,1.50
2019-02-10T22:08:24.641Z,1.50
2019-02-10T22:10:54.245Z,1.50
2019-02-10T22:13:23.973Z,1.30
2019-02-10T22:15:53.568Z,1.13
2019-02-10T22:18:23.249Z,1.32
2019-02-10T22:20:52.814Z,1.50
2019-02-10T22:23:23.334Z,1.40
2019-02-10T22:25:52.918Z,1.27
2019-02-10T22:28:22.582Z,1.50
2019-02-10T22:30:52.111Z,1.00
2019-02-10T22:33:21.741Z,1.63
2019-02-10T22:35:51.526Z,1.13
2019-02-10T22:38:21.086Z,1.17
2019-02-10T22:40:50.713Z,1.20
2019-02-10T22:43:20.298Z,1.20
2019-02-10T22:45:49.871Z,1.30
2019-02-10T22:48:19.471Z,1.20
2019-02-10T22:50:49.097Z,0.87
2019-02-10T22:53:18.705Z,1.07
2019-02-10T22:55:49.969Z,1.23
2019-02-10T22:58:19.589Z,1.20
2019-02-10T23:00:57.464Z,1.00
2019-02-10T23:03:27.080Z,1.47
2019-02-10T23:05:56.672Z,1.40
2019-02-10T23:08:26.285Z,1.40
2019-02-10T23:10:56.021Z,1.77
2019-02-10T23:13:25.686Z,1.50
2019-02-10T23:15:55.301Z,1.20
2019-02-10T23:18:24.874Z,1.43
2019-02-10T23:20:54.471Z,1.37
2019-02-10T23:23:24.098Z,1.20
2019-02-10T23:25:53.689Z,1.17
2019-02-10T23:28:23.318Z,1.10
2019-02-10T23:30:52.877Z,1.10
2019-02-10T23:33:22.533Z,1.53
2019-02-10T23:35:52.198Z,1.40
2019-02-10T23:38:21.860Z,1.10
2019-02-10T23:40:51.491Z,1.30
2019-02-10T23:43:21.093Z,1.20
2019-02-10T23:45:50.690Z,1.40
2019-02-10T23:48:20.285Z,1.40
2019-02-10T23:50:49.856Z,1.13
2019-02-10T23:53:19.589Z,1.30
2019-02-10T23:55:49.265Z,1.40
2019-02-10T23:58:18.912Z,1.10
